sensor_id;sensor_type;location;lat;lon;timestamp;pressure;altitude;pressure_sealevel;temperature
64904;BMP280;51401;48.882;12.598;2023-05-10T00:01:54;95898.22;;;14.00
64904;BMP280;51401;48.882;12.598;2023-05-10T00:04:19;95892.31;;;13.82
64904;BMP280;51401;48.882;12.598;2023-05-10T00:06:45;95867.69;;;13.83
64904;BMP280;51401;48.882;12.598;2023-05-10T00:09:10;95881.88;;;13.90
64904;BMP280;51401;48.882;12.598;2023-05-10T00:11:35;95863.81;;;13.78
64904;BMP280;51401;48.882;12.598;2023-05-10T00:14:00;95862.22;;;13.72
64904;BMP280;51401;48.882;12.598;2023-05-10T00:16:26;95851.94;;;13.68
64904;BMP280;51401;48.882;12.598;2023-05-10T00:18:54;95786.72;;;13.63
64904;BMP280;51401;48.882;12.598;2023-05-10T00:21:19;95802.03;;;13.70
64904;BMP280;51401;48.882;12.598;2023-05-10T00:23:44;95812.72;;;13.89
64904;BMP280;51401;48.882;12.598;2023-05-10T00:26:10;95798.13;;;13.74
64904;BMP280;51401;48.882;12.598;2023-05-10T00:28:35;95788.88;;;13.73
64904;BMP280;51401;48.882;12.598;2023-05-10T00:31:00;95782.09;;;13.67
64904;BMP280;51401;48.882;12.598;2023-05-10T00:33:25;95799.72;;;13.72
64904;BMP280;51401;48.882;12.598;2023-05-10T00:35:51;95796.56;;;13.68
64904;BMP280;51401;48.882;12.598;2023-05-10T00:38:16;95788.00;;;13.67
64904;BMP280;51401;48.882;12.598;2023-05-10T00:40:42;95781.50;;;13.72
64904;BMP280;51401;48.882;12.598;2023-05-10T00:43:07;95779.75;;;13.69
64904;BMP280;51401;48.882;12.598;2023-05-10T00:45:33;95777.44;;;13.71
64904;BMP280;51401;48.882;12.598;2023-05-10T00:48:04;95765.75;;;13.66
64904;BMP280;51401;48.882;12.598;2023-05-10T00:50:30;95765.31;;;13.68
64904;BMP280;51401;48.882;12.598;2023-05-10T00:52:59;95755.34;;;13.66
64904;BMP280;51401;48.882;12.598;2023-05-10T00:55:24;95750.84;;;13.67
64904;BMP280;51401;48.882;12.598;2023-05-10T00:57:50;95730.44;;;13.65
64904;BMP280;51401;48.882;12.598;2023-05-10T01:00:16;95724.69;;;13.61
64904;BMP280;51401;48.882;12.598;2023-05-10T01:02:44;95718.31;;;13.62
64904;BMP280;51401;48.882;12.598;2023-05-10T01:05:10;95683.78;;;13.62
64904;BMP280;51401;48.882;12.598;2023-05-10T01:07:35;95663.19;;;13.64
64904;BMP280;51401;48.882;12.598;2023-05-10T01:10:01;95665.53;;;13.62
64904;BMP280;51401;48.882;12.598;2023-05-10T01:12:26;95650.47;;;13.66
64904;BMP280;51401;48.882;12.598;2023-05-10T01:14:52;95634.59;;;13.55
64904;BMP280;51401;48.882;12.598;2023-05-10T01:17:18;95617.25;;;13.52
64904;BMP280;51401;48.882;12.598;2023-05-10T01:19:43;95583.72;;;13.45
64904;BMP280;51401;48.882;12.598;2023-05-10T01:22:25;95587.78;;;13.46
64904;BMP280;51401;48.882;12.598;2023-05-10T01:30:55;95495.25;;;13.45
64904;BMP280;51401;48.882;12.598;2023-05-10T01:33:26;95479.19;;;13.47
64904;BMP280;51401;48.882;12.598;2023-05-10T01:43:33;95394.91;;;13.44
64904;BMP280;51401;48.882;12.598;2023-05-10T01:46:05;95376.00;;;13.44
64904;BMP280;51401;48.882;12.598;2023-05-10T01:48:37;95386.22;;;13.47
64904;BMP280;51401;48.882;12.598;2023-05-10T01:51:05;95429.34;;;13.62
64904;BMP280;51401;48.882;12.598;2023-05-10T01:53:33;95470.84;;;13.66
64904;BMP280;51401;48.882;12.598;2023-05-10T01:56:02;95483.91;;;13.57
64904;BMP280;51401;48.882;12.598;2023-05-10T01:58:31;95451.84;;;13.51
64904;BMP280;51401;48.882;12.598;2023-05-10T02:01:00;95488.84;;;13.55
64904;BMP280;51401;48.882;12.598;2023-05-10T02:03:26;95429.47;;;13.45
64904;BMP280;51401;48.882;12.598;2023-05-10T02:05:54;95393.75;;;13.45
64904;BMP280;51401;48.882;12.598;2023-05-10T02:08:21;95458.78;;;13.54
64904;BMP280;51401;48.882;12.598;2023-05-10T02:10:47;95445.75;;;13.54
64904;BMP280;51401;48.882;12.598;2023-05-10T02:13:16;95458.31;;;13.56
64904;BMP280;51401;48.882;12.598;2023-05-10T02:15:42;95455.81;;;13.61
64904;BMP280;51401;48.882;12.598;2023-05-10T02:18:09;95463.69;;;13.52
64904;BMP280;51401;48.882;12.598;2023-05-10T02:20:36;95454.53;;;13.56
64904;BMP280;51401;48.882;12.598;2023-05-10T02:23:03;95469.19;;;13.54
64904;BMP280;51401;48.882;12.598;2023-05-10T02:25:29;95454.00;;;13.53
64904;BMP280;51401;48.882;12.598;2023-05-10T02:27:56;95457.59;;;13.55
64904;BMP280;51401;48.882;12.598;2023-05-10T02:30:23;95436.31;;;13.42
64904;BMP280;51401;48.882;12.598;2023-05-10T02:32:50;95448.97;;;13.49
64904;BMP280;51401;48.882;12.598;2023-05-10T02:35:16;95444.53;;;13.41
64904;BMP280;51401;48.882;12.598;2023-05-10T02:37:41;95416.81;;;13.38
64904;BMP280;51401;48.882;12.598;2023-05-10T02:40:08;95428.50;;;13.42
64904;BMP280;51401;48.882;12.598;2023-05-10T02:42:37;95437.03;;;13.43
64904;BMP280;51401;48.882;12.598;2023-05-10T02:45:07;95447.25;;;13.46
64904;BMP280;51401;48.882;12.598;2023-05-10T02:47:32;95466.34;;;13.43
64904;BMP280;51401;48.882;12.598;2023-05-10T02:49:58;95456.84;;;13.40
64904;BMP280;51401;48.882;12.598;2023-05-10T02:52:26;95471.63;;;13.34
64904;BMP280;51401;48.882;12.598;2023-05-10T02:54:55;95503.97;;;13.33
64904;BMP280;51401;48.882;12.598;2023-05-10T02:57:26;95500.53;;;13.27
64904;BMP280;51401;48.882;12.598;2023-05-10T02:59:52;95470.50;;;13.27
64904;BMP280;51401;48.882;12.598;2023-05-10T03:02:17;95473.19;;;13.32
64904;BMP280;51401;48.882;12.598;2023-05-10T03:04:42;95472.91;;;13.30
64904;BMP280;51401;48.882;12.598;2023-05-10T03:07:08;95480.91;;;13.27
64904;BMP280;51401;48.882;12.598;2023-05-10T03:09:33;95457.47;;;13.27
64904;BMP280;51401;48.882;12.598;2023-05-10T03:12:27;95432.19;;;13.27
64904;BMP280;51401;48.882;12.598;2023-05-10T03:15:04;95413.00;;;13.25
64904;BMP280;51401;48.882;12.598;2023-05-10T03:17:57;95377.00;;;13.23
64904;BMP280;51401;48.882;12.598;2023-05-10T03:20:25;95337.16;;;13.17
64904;BMP280;51401;48.882;12.598;2023-05-10T03:22:52;95274.56;;;13.21
64904;BMP280;51401;48.882;12.598;2023-05-10T03:25:19;95235.53;;;13.21
64904;BMP280;51401;48.882;12.598;2023-05-10T03:27:46;95158.41;;;13.18
64904;BMP280;51401;48.882;12.598;2023-05-10T03:30:13;95081.09;;;13.04
64904;BMP280;51401;48.882;12.598;2023-05-10T03:32:39;94990.47;;;12.97
64904;BMP280;51401;48.882;12.598;2023-05-10T03:35:08;94907.00;;;12.95
64904;BMP280;51401;48.882;12.598;2023-05-10T03:37:34;94823.34;;;12.97
64904;BMP280;51401;48.882;12.598;2023-05-10T03:39:59;94686.31;;;12.77
64904;BMP280;51401;48.882;12.598;2023-05-10T03:42:25;94582.41;;;12.83
64904;BMP280;51401;48.882;12.598;2023-05-10T03:44:50;94416.31;;;12.79
64904;BMP280;51401;48.882;12.598;2023-05-10T03:47:15;94291.59;;;12.79
64904;BMP280;51401;48.882;12.598;2023-05-10T03:49:40;94170.59;;;12.62
64904;BMP280;51401;48.882;12.598;2023-05-10T03:52:06;93995.13;;;12.61
64904;BMP280;51401;48.882;12.598;2023-05-10T03:54:31;93815.91;;;12.56
64904;BMP280;51401;48.882;12.598;2023-05-10T03:56:57;93564.75;;;12.51
64904;BMP280;51401;48.882;12.598;2023-05-10T03:59:22;93242.56;;;12.49
64904;BMP280;51401;48.882;12.598;2023-05-10T04:01:47;93036.06;;;12.48
64904;BMP280;51401;48.882;12.598;2023-05-10T04:04:13;92838.97;;;12.37
64904;BMP280;51401;48.882;12.598;2023-05-10T04:06:38;92729.78;;;12.35
64904;BMP280;51401;48.882;12.598;2023-05-10T04:09:03;92598.75;;;12.16
64904;BMP280;51401;48.882;12.598;2023-05-10T04:11:29;92463.88;;;12.16
64904;BMP280;51401;48.882;12.598;2023-05-10T04:13:54;92298.88;;;12.20
64904;BMP280;51401;48.882;12.598;2023-05-10T04:16:20;92164.47;;;12.11
64904;BMP280;51401;48.882;12.598;2023-05-10T04:18:45;92011.13;;;12.08
64904;BMP280;51401;48.882;12.598;2023-05-10T04:21:11;91783.91;;;12.05
64904;BMP280;51401;48.882;12.598;2023-05-10T04:23:37;91509.81;;;11.98
64904;BMP280;51401;48.882;12.598;2023-05-10T04:26:03;91313.38;;;11.89
64904;BMP280;51401;48.882;12.598;2023-05-10T04:28:28;91056.34;;;11.83
64904;BMP280;51401;48.882;12.598;2023-05-10T04:31:00;90803.09;;;11.83
64904;BMP280;51401;48.882;12.598;2023-05-10T04:33:25;90531.81;;;11.77
64904;BMP280;51401;48.882;12.598;2023-05-10T04:35:51;90328.16;;;11.72
64904;BMP280;51401;48.882;12.598;2023-05-10T04:38:16;89972.16;;;11.75
64904;BMP280;51401;48.882;12.598;2023-05-10T04:40:41;89734.31;;;11.71
64904;BMP280;51401;48.882;12.598;2023-05-10T04:43:07;89471.81;;;11.65
64904;BMP280;51401;48.882;12.598;2023-05-10T04:45:32;89193.84;;;11.58
64904;BMP280;51401;48.882;12.598;2023-05-10T04:47:57;88764.03;;;11.56
64904;BMP280;51401;48.882;12.598;2023-05-10T04:50:23;88230.44;;;11.62
64904;BMP280;51401;48.882;12.598;2023-05-10T04:52:48;87679.06;;;11.56
64904;BMP280;51401;48.882;12.598;2023-05-10T04:55:13;87276.13;;;11.54
64904;BMP280;51401;48.882;12.598;2023-05-10T04:57:39;86794.34;;;11.56
64904;BMP280;51401;48.882;12.598;2023-05-10T05:00:04;86182.06;;;11.54
64904;BMP280;51401;48.882;12.598;2023-05-10T05:02:30;85380.53;;;11.54
64904;BMP280;51401;48.882;12.598;2023-05-10T05:04:56;79461.50;;;11.52
64904;BMP280;51401;48.882;12.598;2023-05-10T05:07:22;79051.59;;;11.50
64904;BMP280;51401;48.882;12.598;2023-05-10T05:09:48;78694.47;;;11.49
64904;BMP280;51401;48.882;12.598;2023-05-10T05:12:13;78415.97;;;11.49
64904;BMP280;51401;48.882;12.598;2023-05-10T05:14:39;78236.34;;;11.48
64904;BMP280;51401;48.882;12.598;2023-05-10T05:17:05;78082.75;;;11.49
64904;BMP280;51401;48.882;12.598;2023-05-10T05:19:31;77828.38;;;11.52
64904;BMP280;51401;48.882;12.598;2023-05-10T05:21:56;77600.38;;;11.55
64904;BMP280;51401;48.882;12.598;2023-05-10T05:24:21;77421.03;;;11.56
64904;BMP280;51401;48.882;12.598;2023-05-10T05:26:46;77202.44;;;11.61
64904;BMP280;51401;48.882;12.598;2023-05-10T05:29:12;76989.63;;;11.62
64904;BMP280;51401;48.882;12.598;2023-05-10T05:31:37;76687.84;;;11.71
64904;BMP280;51401;48.882;12.598;2023-05-10T05:34:03;76703.31;;;11.71
64904;BMP280;51401;48.882;12.598;2023-05-10T05:36:28;76649.19;;;11.71
64904;BMP280;51401;48.882;12.598;2023-05-10T05:38:53;76292.38;;;11.81
64904;BMP280;51401;48.882;12.598;2023-05-10T05:41:18;75979.16;;;11.85
64904;BMP280;51401;48.882;12.598;2023-05-10T05:43:46;75968.09;;;11.82
64904;BMP280;51401;48.882;12.598;2023-05-10T05:46:12;76102.16;;;11.82
64904;BMP280;51401;48.882;12.598;2023-05-10T05:48:37;75969.97;;;11.97
64904;BMP280;51401;48.882;12.598;2023-05-10T05:51:03;76078.72;;;12.02
64904;BMP280;51401;48.882;12.598;2023-05-10T05:53:28;76382.00;;;11.97
64904;BMP280;51401;48.882;12.598;2023-05-10T05:55:54;76535.13;;;12.07
64904;BMP280;51401;48.882;12.598;2023-05-10T05:58:21;76612.38;;;12.15
64904;BMP280;51401;48.882;12.598;2023-05-10T06:00:46;76943.22;;;12.11
64904;BMP280;51401;48.882;12.598;2023-05-10T06:03:11;77098.34;;;12.09
64904;BMP280;51401;48.882;12.598;2023-05-10T06:05:37;77261.50;;;12.06
64904;BMP280;51401;48.882;12.598;2023-05-10T06:08:02;77602.38;;;11.95
64904;BMP280;51401;48.882;12.598;2023-05-10T06:10:28;77521.81;;;12.08
64904;BMP280;51401;48.882;12.598;2023-05-10T06:12:53;77568.25;;;12.08
64904;BMP280;51401;48.882;12.598;2023-05-10T06:15:19;77559.63;;;12.05
64904;BMP280;51401;48.882;12.598;2023-05-10T06:17:44;77498.88;;;12.06
64904;BMP280;51401;48.882;12.598;2023-05-10T06:20:10;77575.44;;;11.94
64904;BMP280;51401;48.882;12.598;2023-05-10T06:22:36;77408.31;;;12.03
64904;BMP280;51401;48.882;12.598;2023-05-10T06:25:01;77434.69;;;11.99
64904;BMP280;51401;48.882;12.598;2023-05-10T06:27:27;77435.81;;;12.00
64904;BMP280;51401;48.882;12.598;2023-05-10T06:29:52;77473.94;;;11.91
64904;BMP280;51401;48.882;12.598;2023-05-10T06:32:17;77365.91;;;11.89
64904;BMP280;51401;48.882;12.598;2023-05-10T06:34:42;77421.53;;;11.79
64904;BMP280;51401;48.882;12.598;2023-05-10T06:37:08;77268.56;;;11.76
64904;BMP280;51401;48.882;12.598;2023-05-10T06:39:33;76964.78;;;11.81
64904;BMP280;51401;48.882;12.598;2023-05-10T06:41:59;76771.19;;;11.74
64904;BMP280;51401;48.882;12.598;2023-05-10T06:44:24;76643.53;;;11.66
64904;BMP280;51401;48.882;12.598;2023-05-10T06:46:49;76296.59;;;11.72
64904;BMP280;51401;48.882;12.598;2023-05-10T06:49:15;76028.38;;;11.65
64904;BMP280;51401;48.882;12.598;2023-05-10T06:51:40;75421.59;;;11.75
64904;BMP280;51401;48.882;12.598;2023-05-10T06:54:06;74802.38;;;11.86
64904;BMP280;51401;48.882;12.598;2023-05-10T06:56:31;74603.81;;;11.77
64904;BMP280;51401;48.882;12.598;2023-05-10T06:58:57;73890.91;;;11.89
64904;BMP280;51401;48.882;12.598;2023-05-10T07:01:22;72868.25;;;12.01
64904;BMP280;51401;48.882;12.598;2023-05-10T07:03:48;72120.59;;;12.12
64904;BMP280;51401;48.882;12.598;2023-05-10T07:06:13;71721.44;;;12.14
64904;BMP280;51401;48.882;12.598;2023-05-10T07:08:38;71524.25;;;12.20
64904;BMP280;51401;48.882;12.598;2023-05-10T07:11:05;71352.78;;;12.24
64904;BMP280;51401;48.882;12.598;2023-05-10T07:13:33;71155.53;;;12.27
64904;BMP280;51401;48.882;12.598;2023-05-10T07:15:59;71068.00;;;12.30
64904;BMP280;51401;48.882;12.598;2023-05-10T07:18:25;71172.50;;;12.26
64904;BMP280;51401;48.882;12.598;2023-05-10T07:20:51;71116.44;;;12.34
64904;BMP280;51401;48.882;12.598;2023-05-10T07:23:16;71198.91;;;12.39
64904;BMP280;51401;48.882;12.598;2023-05-10T07:25:48;71154.16;;;12.45
64904;BMP280;51401;48.882;12.598;2023-05-10T07:28:15;71241.22;;;12.45
64904;BMP280;51401;48.882;12.598;2023-05-10T07:30:41;71449.47;;;12.52
64904;BMP280;51401;48.882;12.598;2023-05-10T07:33:07;71716.53;;;12.56
64904;BMP280;51401;48.882;12.598;2023-05-10T07:35:34;72092.94;;;12.61
64904;BMP280;51401;48.882;12.598;2023-05-10T07:37:59;72720.22;;;12.54
64904;BMP280;51401;48.882;12.598;2023-05-10T07:40:25;73312.91;;;12.47
64904;BMP280;51401;48.882;12.598;2023-05-10T07:42:50;73768.34;;;12.39
64904;BMP280;51401;48.882;12.598;2023-05-10T07:45:16;73814.47;;;12.53
64904;BMP280;51401;48.882;12.598;2023-05-10T07:47:41;73883.56;;;12.62
64904;BMP280;51401;48.882;12.598;2023-05-10T07:50:07;74283.38;;;12.62
64904;BMP280;51401;48.882;12.598;2023-05-10T07:52:32;74590.41;;;12.62
64904;BMP280;51401;48.882;12.598;2023-05-10T07:54:58;74813.88;;;12.70
64904;BMP280;51401;48.882;12.598;2023-05-10T07:57:23;75033.75;;;12.77
64904;BMP280;51401;48.882;12.598;2023-05-10T07:59:48;75099.72;;;12.97
64904;BMP280;51401;48.882;12.598;2023-05-10T08:02:13;75495.66;;;12.89
64904;BMP280;51401;48.882;12.598;2023-05-10T08:04:39;75560.81;;;12.96
64904;BMP280;51401;48.882;12.598;2023-05-10T08:07:04;75533.59;;;13.11
64904;BMP280;51401;48.882;12.598;2023-05-10T08:09:29;75766.97;;;13.09
64904;BMP280;51401;48.882;12.598;2023-05-10T08:11:54;75731.09;;;13.26
64904;BMP280;51401;48.882;12.598;2023-05-10T08:14:20;75888.41;;;13.34
64904;BMP280;51401;48.882;12.598;2023-05-10T08:16:45;76303.94;;;13.34
64904;BMP280;51401;48.882;12.598;2023-05-10T08:19:10;76480.16;;;13.39
64904;BMP280;51401;48.882;12.598;2023-05-10T08:21:36;76518.16;;;13.36
64904;BMP280;51401;48.882;12.598;2023-05-10T08:24:01;76614.22;;;13.29
64904;BMP280;51401;48.882;12.598;2023-05-10T08:26:27;76668.47;;;13.45
64904;BMP280;51401;48.882;12.598;2023-05-10T08:28:52;76820.44;;;13.60
64904;BMP280;51401;48.882;12.598;2023-05-10T08:31:18;76883.09;;;13.61
64904;BMP280;51401;48.882;12.598;2023-05-10T08:33:43;77084.19;;;13.45
64904;BMP280;51401;48.882;12.598;2023-05-10T08:36:09;77214.88;;;13.48
64904;BMP280;51401;48.882;12.598;2023-05-10T08:38:34;77137.63;;;13.66
64904;BMP280;51401;48.882;12.598;2023-05-10T08:41:01;77180.19;;;13.63
64904;BMP280;51401;48.882;12.598;2023-05-10T08:43:28;76991.31;;;13.67
64904;BMP280;51401;48.882;12.598;2023-05-10T08:46:00;76784.25;;;13.60
64904;BMP280;51401;48.882;12.598;2023-05-10T08:48:27;76536.19;;;13.63
64904;BMP280;51401;48.882;12.598;2023-05-10T08:50:54;76227.56;;;13.64
64904;BMP280;51401;48.882;12.598;2023-05-10T08:53:24;75722.91;;;13.78
64904;BMP280;51401;48.882;12.598;2023-05-10T08:55:51;75330.75;;;13.83
64904;BMP280;51401;48.882;12.598;2023-05-10T08:58:17;75273.34;;;13.69
64904;BMP280;51401;48.882;12.598;2023-05-10T09:00:44;75208.03;;;13.59
64904;BMP280;51401;48.882;12.598;2023-05-10T09:03:10;74688.50;;;13.75
64904;BMP280;51401;48.882;12.598;2023-05-10T09:05:36;74054.78;;;14.05
64904;BMP280;51401;48.882;12.598;2023-05-10T09:08:02;73487.13;;;14.32
64904;BMP280;51401;48.882;12.598;2023-05-10T09:10:28;73332.69;;;14.38
64904;BMP280;51401;48.882;12.598;2023-05-10T09:12:56;73048.09;;;14.49
64904;BMP280;51401;48.882;12.598;2023-05-10T09:15:22;72741.41;;;14.70
64904;BMP280;51401;48.882;12.598;2023-05-10T09:17:49;72687.72;;;14.75
64904;BMP280;51401;48.882;12.598;2023-05-10T09:20:14;72770.59;;;14.77
64904;BMP280;51401;48.882;12.598;2023-05-10T09:22:40;73093.66;;;14.65
64904;BMP280;51401;48.882;12.598;2023-05-10T09:25:09;72838.84;;;14.93
64904;BMP280;51401;48.882;12.598;2023-05-10T09:27:35;72471.38;;;15.17
64904;BMP280;51401;48.882;12.598;2023-05-10T09:30:01;72214.50;;;15.43
64904;BMP280;51401;48.882;12.598;2023-05-10T09:32:40;72084.06;;;15.86
64904;BMP280;51401;48.882;12.598;2023-05-10T09:35:10;72683.41;;;16.13
64904;BMP280;51401;48.882;12.598;2023-05-10T09:37:36;73721.31;;;16.25
64904;BMP280;51401;48.882;12.598;2023-05-10T09:40:04;74963.53;;;16.45
64904;BMP280;51401;48.882;12.598;2023-05-10T09:42:30;76305.84;;;16.65
64904;BMP280;51401;48.882;12.598;2023-05-10T09:45:00;78006.97;;;16.70
64904;BMP280;51401;48.882;12.598;2023-05-10T09:47:26;79697.44;;;16.38
64904;BMP280;51401;48.882;12.598;2023-05-10T09:49:52;80727.97;;;16.27
64904;BMP280;51401;48.882;12.598;2023-05-10T09:52:20;80959.41;;;16.34
64904;BMP280;51401;48.882;12.598;2023-05-10T09:54:53;81567.81;;;16.71
64904;BMP280;51401;48.882;12.598;2023-05-10T09:57:23;82332.22;;;17.00
64904;BMP280;51401;48.882;12.598;2023-05-10T09:59:48;83187.59;;;16.19
64904;BMP280;51401;48.882;12.598;2023-05-10T10:02:19;82802.69;;;16.15
64904;BMP280;51401;48.882;12.598;2023-05-10T10:04:44;82412.13;;;16.95
64904;BMP280;51401;48.882;12.598;2023-05-10T10:07:09;82923.91;;;16.98
64904;BMP280;51401;48.882;12.598;2023-05-10T10:09:35;83077.88;;;17.21
64904;BMP280;51401;48.882;12.598;2023-05-10T10:12:01;83240.88;;;17.47
64904;BMP280;51401;48.882;12.598;2023-05-10T10:14:28;83772.81;;;17.41
64904;BMP280;51401;48.882;12.598;2023-05-10T10:16:54;83493.31;;;17.28
64904;BMP280;51401;48.882;12.598;2023-05-10T10:19:19;84095.53;;;16.54
64904;BMP280;51401;48.882;12.598;2023-05-10T10:21:46;83289.34;;;17.09
64904;BMP280;51401;48.882;12.598;2023-05-10T10:24:11;83907.50;;;16.62
64904;BMP280;51401;48.882;12.598;2023-05-10T10:26:37;83957.84;;;16.91
64904;BMP280;51401;48.882;12.598;2023-05-10T10:29:21;83893.69;;;17.37
64904;BMP280;51401;48.882;12.598;2023-05-10T10:34:41;84931.28;;;17.69
64904;BMP280;51401;48.882;12.598;2023-05-10T10:37:06;85514.47;;;18.12
64904;BMP280;51401;48.882;12.598;2023-05-10T10:39:32;86011.66;;;17.73
64904;BMP280;51401;48.882;12.598;2023-05-10T10:41:58;85675.41;;;17.89
64904;BMP280;51401;48.882;12.598;2023-05-10T10:54:53;88623.53;;;19.00
64904;BMP280;51401;48.882;12.598;2023-05-10T10:57:21;88854.13;;;19.04
64904;BMP280;51401;48.882;12.598;2023-05-10T10:59:47;88444.16;;;19.23
64904;BMP280;51401;48.882;12.598;2023-05-10T11:02:43;88855.50;;;19.09
64904;BMP280;51401;48.882;12.598;2023-05-10T11:07:57;88768.78;;;18.86
64904;BMP280;51401;48.882;12.598;2023-05-10T11:10:24;88966.97;;;19.18
64904;BMP280;51401;48.882;12.598;2023-05-10T11:13:06;88901.28;;;19.04
64904;BMP280;51401;48.882;12.598;2023-05-10T11:15:34;89229.06;;;19.16
64904;BMP280;51401;48.882;12.598;2023-05-10T11:18:16;89445.63;;;18.69
64904;BMP280;51401;48.882;12.598;2023-05-10T11:20:42;88222.69;;;18.65
64904;BMP280;51401;48.882;12.598;2023-05-10T11:23:14;87726.63;;;18.58
64904;BMP280;51401;48.882;12.598;2023-05-10T11:25:45;88511.94;;;18.60
64904;BMP280;51401;48.882;12.598;2023-05-10T11:28:14;89079.66;;;18.33
64904;BMP280;51401;48.882;12.598;2023-05-10T11:30:40;89444.97;;;17.85
64904;BMP280;51401;48.882;12.598;2023-05-10T11:33:07;88702.94;;;17.92
64904;BMP280;51401;48.882;12.598;2023-05-10T11:35:39;87977.91;;;17.91
64904;BMP280;51401;48.882;12.598;2023-05-10T11:38:08;88945.28;;;17.78
64904;BMP280;51401;48.882;12.598;2023-05-10T11:40:35;88860.81;;;17.69
64904;BMP280;51401;48.882;12.598;2023-05-10T11:43:00;88506.56;;;17.72
64904;BMP280;51401;48.882;12.598;2023-05-10T11:45:26;88564.81;;;17.77
64904;BMP280;51401;48.882;12.598;2023-05-10T11:47:53;88968.06;;;17.73
64904;BMP280;51401;48.882;12.598;2023-05-10T11:50:18;89036.19;;;17.81
64904;BMP280;51401;48.882;12.598;2023-05-10T11:52:43;89323.59;;;17.96
64904;BMP280;51401;48.882;12.598;2023-05-10T11:55:08;89429.75;;;18.05
64904;BMP280;51401;48.882;12.598;2023-05-10T11:57:35;89694.53;;;18.23
64904;BMP280;51401;48.882;12.598;2023-05-10T12:00:01;89720.03;;;18.45
64904;BMP280;51401;48.882;12.598;2023-05-10T12:02:28;90279.00;;;18.60
64904;BMP280;51401;48.882;12.598;2023-05-10T12:04:55;90504.09;;;18.71
64904;BMP280;51401;48.882;12.598;2023-05-10T12:07:21;90274.41;;;18.96
64904;BMP280;51401;48.882;12.598;2023-05-10T12:10:11;90312.97;;;19.13
64904;BMP280;51401;48.882;12.598;2023-05-10T12:12:41;90499.97;;;19.00
64904;BMP280;51401;48.882;12.598;2023-05-10T12:15:31;90671.41;;;18.93
64904;BMP280;51401;48.882;12.598;2023-05-10T12:17:56;90415.66;;;18.89
64904;BMP280;51401;48.882;12.598;2023-05-10T12:20:23;90587.19;;;19.18
64904;BMP280;51401;48.882;12.598;2023-05-10T12:22:52;90621.69;;;19.45
64904;BMP280;51401;48.882;12.598;2023-05-10T12:25:19;90846.25;;;19.19
64904;BMP280;51401;48.882;12.598;2023-05-10T12:27:52;90895.44;;;19.51
64904;BMP280;51401;48.882;12.598;2023-05-10T12:30:22;90912.53;;;19.52
64904;BMP280;51401;48.882;12.598;2023-05-10T12:32:48;90873.19;;;19.52
64904;BMP280;51401;48.882;12.598;2023-05-10T12:35:14;90419.56;;;19.24
64904;BMP280;51401;48.882;12.598;2023-05-10T12:37:40;89740.88;;;18.91
64904;BMP280;51401;48.882;12.598;2023-05-10T12:40:06;90132.91;;;19.41
64904;BMP280;51401;48.882;12.598;2023-05-10T12:42:33;90302.34;;;19.09
64904;BMP280;51401;48.882;12.598;2023-05-10T12:44:59;90455.75;;;19.46
64904;BMP280;51401;48.882;12.598;2023-05-10T12:47:24;90479.94;;;19.26
64904;BMP280;51401;48.882;12.598;2023-05-10T12:49:49;90991.84;;;19.36
64904;BMP280;51401;48.882;12.598;2023-05-10T12:52:16;91189.13;;;19.19
64904;BMP280;51401;48.882;12.598;2023-05-10T12:54:41;91492.22;;;19.46
64904;BMP280;51401;48.882;12.598;2023-05-10T12:57:06;91567.25;;;19.63
64904;BMP280;51401;48.882;12.598;2023-05-10T12:59:32;91274.78;;;19.68
64904;BMP280;51401;48.882;12.598;2023-05-10T13:01:57;91516.53;;;19.85
64904;BMP280;51401;48.882;12.598;2023-05-10T13:04:22;91687.66;;;19.93
64904;BMP280;51401;48.882;12.598;2023-05-10T13:06:48;91374.28;;;20.03
64904;BMP280;51401;48.882;12.598;2023-05-10T13:09:13;91272.19;;;19.96
64904;BMP280;51401;48.882;12.598;2023-05-10T13:11:38;91796.72;;;19.94
64904;BMP280;51401;48.882;12.598;2023-05-10T13:14:04;91457.66;;;19.63
64904;BMP280;51401;48.882;12.598;2023-05-10T13:16:29;91559.38;;;19.38
64904;BMP280;51401;48.882;12.598;2023-05-10T13:18:54;91057.44;;;19.36
64904;BMP280;51401;48.882;12.598;2023-05-10T13:21:19;91341.78;;;19.29
64904;BMP280;51401;48.882;12.598;2023-05-10T13:23:45;91461.25;;;19.43
64904;BMP280;51401;48.882;12.598;2023-05-10T13:26:11;91816.56;;;19.27
64904;BMP280;51401;48.882;12.598;2023-05-10T13:28:36;91117.50;;;19.30
64904;BMP280;51401;48.882;12.598;2023-05-10T13:31:03;91029.53;;;18.85
64904;BMP280;51401;48.882;12.598;2023-05-10T13:33:29;91300.00;;;19.33
64904;BMP280;51401;48.882;12.598;2023-05-10T13:35:54;91416.72;;;19.07
64904;BMP280;51401;48.882;12.598;2023-05-10T13:38:19;91360.31;;;19.06
64904;BMP280;51401;48.882;12.598;2023-05-10T13:40:44;91516.28;;;18.81
64904;BMP280;51401;48.882;12.598;2023-05-10T13:43:10;91672.97;;;18.48
64904;BMP280;51401;48.882;12.598;2023-05-10T13:45:35;91646.19;;;18.16
64904;BMP280;51401;48.882;12.598;2023-05-10T13:48:00;91608.69;;;18.13
64904;BMP280;51401;48.882;12.598;2023-05-10T13:50:26;91283.41;;;18.15
64904;BMP280;51401;48.882;12.598;2023-05-10T13:52:51;90624.66;;;17.95
64904;BMP280;51401;48.882;12.598;2023-05-10T13:55:17;90951.63;;;18.04
64904;BMP280;51401;48.882;12.598;2023-05-10T13:57:42;91264.47;;;17.92
64904;BMP280;51401;48.882;12.598;2023-05-10T14:00:08;91442.03;;;17.73
64904;BMP280;51401;48.882;12.598;2023-05-10T14:02:34;91149.38;;;17.45
64904;BMP280;51401;48.882;12.598;2023-05-10T14:05:00;90667.47;;;17.44
64904;BMP280;51401;48.882;12.598;2023-05-10T14:07:25;90763.31;;;17.38
64904;BMP280;51401;48.882;12.598;2023-05-10T14:09:50;90727.19;;;17.34
64904;BMP280;51401;48.882;12.598;2023-05-10T14:12:16;90845.69;;;17.25
64904;BMP280;51401;48.882;12.598;2023-05-10T14:14:41;90291.84;;;17.18
64904;BMP280;51401;48.882;12.598;2023-05-10T14:17:07;89899.56;;;16.93
64904;BMP280;51401;48.882;12.598;2023-05-10T14:19:32;89646.19;;;16.93
64904;BMP280;51401;48.882;12.598;2023-05-10T14:21:59;89291.31;;;16.57
64904;BMP280;51401;48.882;12.598;2023-05-10T14:24:24;88919.91;;;16.50